sensor_id;sensor_type;location;lat;lon;timestamp;pressure;altitude;pressure_sealevel;temperature;humidity
74594;BME280;63097;51.872;4.460;2023-03-21T00:01:13;101816.81;;;9.10;100.00
74594;BME280;63097;51.872;4.460;2023-03-21T00:03:39;101817.06;;;9.02;100.00
74594;BME280;63097;51.872;4.460;2023-03-21T00:06:07;101813.00;;;9.04;100.00
74594;BME280;63097;51.872;4.460;2023-03-21T00:08:32;101811.69;;;9.07;100.00
74594;BME280;63097;51.872;4.460;2023-03-21T00:11:03;101803.19;;;9.02;100.00
74594;BME280;63097;51.872;4.460;2023-03-21T00:13:30;101807.44;;;8.98;100.00
74594;BME280;63097;51.872;4.460;2023-03-21T00:15:56;101807.00;;;9.07;100.00
74594;BME280;63097;51.872;4.460;2023-03-21T00:18:22;101808.94;;;9.00;100.00
74594;BME280;63097;51.872;4.460;2023-03-21T00:20:58;101802.94;;;9.03;100.00
74594;BME280;63097;51.872;4.460;2023-03-21T00:23:28;101800.81;;;9.05;100.00
74594;BME280;63097;51.872;4.460;2023-03-21T00:25:53;101800.00;;;8.98;100.00
74594;BME280;63097;51.872;4.460;2023-03-21T00:28:19;101803.41;;;9.00;100.00
74594;BME280;63097;51.872;4.460;2023-03-21T00:30:45;101802.78;;;8.92;100.00
74594;BME280;63097;51.872;4.460;2023-03-21T00:33:10;101797.44;;;8.97;100.00
74594;BME280;63097;51.872;4.460;2023-03-21T00:35:35;101786.75;;;8.94;100.00
74594;BME280;63097;51.872;4.460;2023-03-21T00:38:02;101780.34;;;9.00;100.00
74594;BME280;63097;51.872;4.460;2023-03-21T00:40:27;101792.47;;;9.05;100.00
74594;BME280;63097;51.872;4.460;2023-03-21T00:42:53;101789.13;;;8.97;99.79
74594;BME280;63097;51.872;4.460;2023-03-21T00:45:18;101794.44;;;8.98;99.91
74594;BME280;63097;51.872;4.460;2023-03-21T00:47:44;101788.22;;;9.03;99.90
74594;BME280;63097;51.872;4.460;2023-03-21T00:50:09;101787.81;;;8.99;99.62
74594;BME280;63097;51.872;4.460;2023-03-21T00:52:35;101786.94;;;9.05;99.55
74594;BME280;63097;51.872;4.460;2023-03-21T00:55:00;101782.66;;;9.03;99.13
74594;BME280;63097;51.872;4.460;2023-03-21T00:57:25;101784.34;;;9.10;98.74
74594;BME280;63097;51.872;4.460;2023-03-21T00:59:51;101778.78;;;9.10;98.72
74594;BME280;63097;51.872;4.460;2023-03-21T01:02:16;101772.84;;;9.07;98.73
74594;BME280;63097;51.872;4.460;2023-03-21T01:04:41;101772.41;;;9.03;98.33
74594;BME280;63097;51.872;4.460;2023-03-21T01:07:07;101758.59;;;8.97;98.35
74594;BME280;63097;51.872;4.460;2023-03-21T01:09:32;101765.81;;;8.98;98.81
74594;BME280;63097;51.872;4.460;2023-03-21T01:11:58;101752.00;;;8.91;99.13
74594;BME280;63097;51.872;4.460;2023-03-21T01:14:23;101764.28;;;9.08;98.77
74594;BME280;63097;51.872;4.460;2023-03-21T01:16:52;101759.19;;;9.05;98.46
74594;BME280;63097;51.872;4.460;2023-03-21T01:19:19;101750.41;;;9.08;98.39
74594;BME280;63097;51.872;4.460;2023-03-21T01:21:45;101746.78;;;9.08;98.27
74594;BME280;63097;51.872;4.460;2023-03-21T01:24:10;101747.69;;;8.95;98.69
74594;BME280;63097;51.872;4.460;2023-03-21T01:26:36;101739.19;;;8.90;98.75
74594;BME280;63097;51.872;4.460;2023-03-21T01:29:03;101733.78;;;9.02;98.63
74594;BME280;63097;51.872;4.460;2023-03-21T01:31:28;101741.53;;;8.93;98.88
74594;BME280;63097;51.872;4.460;2023-03-21T01:33:54;101736.56;;;9.02;98.68
74594;BME280;63097;51.872;4.460;2023-03-21T01:36:24;101732.56;;;8.91;98.95
74594;BME280;63097;51.872;4.460;2023-03-21T01:38:50;101742.81;;;8.91;99.15
74594;BME280;63097;51.872;4.460;2023-03-21T01:41:34;101732.31;;;8.99;98.53
74594;BME280;63097;51.872;4.460;2023-03-21T01:44:00;101734.72;;;8.89;98.81
74594;BME280;63097;51.872;4.460;2023-03-21T01:46:47;101737.31;;;8.84;99.40
74594;BME280;63097;51.872;4.460;2023-03-21T01:49:21;101736.84;;;8.87;99.46
74594;BME280;63097;51.872;4.460;2023-03-21T01:51:49;101733.91;;;8.82;99.45
74594;BME280;63097;51.872;4.460;2023-03-21T01:54:20;101717.91;;;8.78;99.42
74594;BME280;63097;51.872;4.460;2023-03-21T01:56:47;101727.44;;;8.88;99.19
74594;BME280;63097;51.872;4.460;2023-03-21T01:59:21;101730.28;;;8.75;99.81
74594;BME280;63097;51.872;4.460;2023-03-21T02:01:49;101726.63;;;8.81;99.92
74594;BME280;63097;51.872;4.460;2023-03-21T02:04:17;101732.97;;;8.95;99.41
74594;BME280;63097;51.872;4.460;2023-03-21T02:09:30;101714.19;;;8.90;99.65
74594;BME280;63097;51.872;4.460;2023-03-21T02:11:57;101714.03;;;8.85;99.50
74594;BME280;63097;51.872;4.460;2023-03-21T02:14:22;101715.31;;;8.83;99.99
74594;BME280;63097;51.872;4.460;2023-03-21T02:17:01;101701.88;;;8.80;100.00
74594;BME280;63097;51.872;4.460;2023-03-21T02:22:44;101696.16;;;8.68;100.00
74594;BME280;63097;51.872;4.460;2023-03-21T02:27:55;101692.28;;;8.76;100.00
74594;BME280;63097;51.872;4.460;2023-03-21T02:41:47;101680.09;;;8.90;98.55
74594;BME280;63097;51.872;4.460;2023-03-21T02:44:24;101678.13;;;8.97;98.19
74594;BME280;63097;51.872;4.460;2023-03-21T02:46:58;101677.56;;;8.82;98.52
74594;BME280;63097;51.872;4.460;2023-03-21T02:49:30;101668.66;;;8.73;98.69
74594;BME280;63097;51.872;4.460;2023-03-21T02:51:59;101677.38;;;8.70;99.01
74594;BME280;63097;51.872;4.460;2023-03-21T02:54:27;101670.03;;;8.89;98.26
74594;BME280;63097;51.872;4.460;2023-03-21T02:56:54;101671.38;;;8.80;98.04
74594;BME280;63097;51.872;4.460;2023-03-21T02:59:22;101676.41;;;8.96;97.12
74594;BME280;63097;51.872;4.460;2023-03-21T03:01:50;101673.44;;;8.91;96.88
74594;BME280;63097;51.872;4.460;2023-03-21T03:04:26;101670.72;;;8.84;96.87
74594;BME280;63097;51.872;4.460;2023-03-21T03:18:23;101674.31;;;8.91;96.12
74594;BME280;63097;51.872;4.460;2023-03-21T03:21:07;101662.19;;;8.79;96.81
74594;BME280;63097;51.872;4.460;2023-03-21T03:23:44;101659.00;;;8.76;96.87
74594;BME280;63097;51.872;4.460;2023-03-21T03:26:21;101659.47;;;8.73;97.41
74594;BME280;63097;51.872;4.460;2023-03-21T03:28:52;101653.88;;;8.79;96.87
74594;BME280;63097;51.872;4.460;2023-03-21T03:31:26;101655.88;;;8.66;97.72
74594;BME280;63097;51.872;4.460;2023-03-21T03:33:55;101660.09;;;8.68;97.50
74594;BME280;63097;51.872;4.460;2023-03-21T03:36:29;101653.09;;;8.66;98.02
74594;BME280;63097;51.872;4.460;2023-03-21T03:38:56;101650.06;;;8.74;97.62
74594;BME280;63097;51.872;4.460;2023-03-21T03:41:24;101651.53;;;8.76;97.21
74594;BME280;63097;51.872;4.460;2023-03-21T03:43:53;101643.84;;;8.78;97.26
74594;BME280;63097;51.872;4.460;2023-03-21T03:49:20;101642.13;;;8.84;96.41
74594;BME280;63097;51.872;4.460;2023-03-21T03:52:03;101640.91;;;8.67;97.04
74594;BME280;63097;51.872;4.460;2023-03-21T03:54:53;101637.84;;;8.88;96.25
74594;BME280;63097;51.872;4.460;2023-03-21T03:57:18;101627.91;;;8.67;96.61
74594;BME280;63097;51.872;4.460;2023-03-21T03:59:44;101628.91;;;8.79;96.35
74594;BME280;63097;51.872;4.460;2023-03-21T04:02:10;101627.03;;;8.73;96.40
74594;BME280;63097;51.872;4.460;2023-03-21T04:04:36;101622.59;;;8.66;97.06
74594;BME280;63097;51.872;4.460;2023-03-21T04:07:02;101625.38;;;8.66;97.13
74594;BME280;63097;51.872;4.460;2023-03-21T04:09:28;101619.13;;;8.70;97.37
74594;BME280;63097;51.872;4.460;2023-03-21T04:11:54;101621.72;;;8.65;97.41
74594;BME280;63097;51.872;4.460;2023-03-21T04:14:20;101616.53;;;8.75;97.10
74594;BME280;63097;51.872;4.460;2023-03-21T04:16:45;101611.00;;;8.75;96.42
74594;BME280;63097;51.872;4.460;2023-03-21T04:19:11;101609.06;;;8.76;96.60
74594;BME280;63097;51.872;4.460;2023-03-21T04:21:37;101609.94;;;8.76;96.68
74594;BME280;63097;51.872;4.460;2023-03-21T04:24:03;101604.22;;;8.71;97.00
74594;BME280;63097;51.872;4.460;2023-03-21T04:26:28;101613.59;;;8.70;97.25
74594;BME280;63097;51.872;4.460;2023-03-21T04:28:53;101602.31;;;8.65;96.98
74594;BME280;63097;51.872;4.460;2023-03-21T04:31:19;101610.47;;;8.60;97.53
74594;BME280;63097;51.872;4.460;2023-03-21T04:33:44;101599.38;;;8.60;97.54
74594;BME280;63097;51.872;4.460;2023-03-21T04:36:10;101603.19;;;8.59;97.70
74594;BME280;63097;51.872;4.460;2023-03-21T04:38:35;101595.03;;;8.71;97.50
74594;BME280;63097;51.872;4.460;2023-03-21T04:41:01;101600.09;;;8.80;96.91
74594;BME280;63097;51.872;4.460;2023-03-21T04:43:27;101599.78;;;8.64;97.16
74594;BME280;63097;51.872;4.460;2023-03-21T04:45:52;101587.81;;;8.63;97.29
74594;BME280;63097;51.872;4.460;2023-03-21T04:48:17;101593.94;;;8.72;97.03
74594;BME280;63097;51.872;4.460;2023-03-21T04:50:43;101588.00;;;8.68;96.96
74594;BME280;63097;51.872;4.460;2023-03-21T04:53:09;101585.69;;;8.65;96.63
74594;BME280;63097;51.872;4.460;2023-03-21T04:55:34;101579.25;;;8.71;96.70
74594;BME280;63097;51.872;4.460;2023-03-21T04:57:59;101576.91;;;8.68;96.56
74594;BME280;63097;51.872;4.460;2023-03-21T05:00:25;101581.69;;;8.55;97.23
74594;BME280;63097;51.872;4.460;2023-03-21T05:02:50;101573.56;;;8.60;97.15
74594;BME280;63097;51.872;4.460;2023-03-21T05:05:15;101575.66;;;8.64;97.29
74594;BME280;63097;51.872;4.460;2023-03-21T05:07:41;101579.31;;;8.58;97.02
74594;BME280;63097;51.872;4.460;2023-03-21T05:10:08;101581.91;;;8.53;97.41
74594;BME280;63097;51.872;4.460;2023-03-21T05:12:34;101572.84;;;8.71;97.10
74594;BME280;63097;51.872;4.460;2023-03-21T05:15:00;101582.72;;;8.60;97.05
74594;BME280;63097;51.872;4.460;2023-03-21T05:17:25;101580.78;;;8.61;96.96
74594;BME280;63097;51.872;4.460;2023-03-21T05:19:51;101575.91;;;8.56;96.97
74594;BME280;63097;51.872;4.460;2023-03-21T05:22:16;101581.69;;;8.55;97.43
74594;BME280;63097;51.872;4.460;2023-03-21T05:24:41;101584.00;;;8.58;96.86
74594;BME280;63097;51.872;4.460;2023-03-21T05:27:07;101582.28;;;8.63;96.84
74594;BME280;63097;51.872;4.460;2023-03-21T05:29:32;101578.88;;;8.61;97.29
74594;BME280;63097;51.872;4.460;2023-03-21T05:32:00;101582.44;;;8.68;96.73
74594;BME280;63097;51.872;4.460;2023-03-21T05:34:26;101584.25;;;8.56;96.91
74594;BME280;63097;51.872;4.460;2023-03-21T05:36:52;101582.91;;;8.65;96.84
74594;BME280;63097;51.872;4.460;2023-03-21T05:39:18;101582.69;;;8.67;96.64
74594;BME280;63097;51.872;4.460;2023-03-21T05:41:43;101578.47;;;8.58;96.95
74594;BME280;63097;51.872;4.460;2023-03-21T05:44:09;101569.97;;;8.53;97.11
74594;BME280;63097;51.872;4.460;2023-03-21T05:46:34;101571.31;;;8.37;97.64
74594;BME280;63097;51.872;4.460;2023-03-21T05:48:59;101581.88;;;8.60;97.62
74594;BME280;63097;51.872;4.460;2023-03-21T05:51:25;101582.28;;;8.63;97.90
74594;BME280;63097;51.872;4.460;2023-03-21T05:53:50;101580.13;;;8.65;97.33
74594;BME280;63097;51.872;4.460;2023-03-21T05:56:15;101586.38;;;8.54;97.27
74594;BME280;63097;51.872;4.460;2023-03-21T05:58:41;101579.75;;;8.55;97.86
74594;BME280;63097;51.872;4.460;2023-03-21T06:01:06;101598.75;;;8.58;97.62
74594;BME280;63097;51.872;4.460;2023-03-21T06:03:31;101591.47;;;8.57;97.65
74594;BME280;63097;51.872;4.460;2023-03-21T06:05:57;101595.97;;;8.52;98.07
74594;BME280;63097;51.872;4.460;2023-03-21T06:08:22;101594.19;;;8.70;97.48
74594;BME280;63097;51.872;4.460;2023-03-21T06:10:47;101591.88;;;8.61;97.46
74594;BME280;63097;51.872;4.460;2023-03-21T06:13:13;101595.28;;;8.63;97.15
74594;BME280;63097;51.872;4.460;2023-03-21T06:15:38;101586.88;;;8.76;97.16
74594;BME280;63097;51.872;4.460;2023-03-21T06:18:03;101585.06;;;8.94;95.55
74594;BME280;63097;51.872;4.460;2023-03-21T06:20:29;101594.31;;;8.82;95.65
74594;BME280;63097;51.872;4.460;2023-03-21T06:22:54;101597.72;;;8.84;95.53
74594;BME280;63097;51.872;4.460;2023-03-21T06:25:19;101591.78;;;8.80;95.65
74594;BME280;63097;51.872;4.460;2023-03-21T06:27:45;101594.72;;;8.85;95.93
74594;BME280;63097;51.872;4.460;2023-03-21T06:30:10;101592.00;;;8.79;96.25
74594;BME280;63097;51.872;4.460;2023-03-21T06:32:36;101582.28;;;8.63;97.30
74594;BME280;63097;51.872;4.460;2023-03-21T06:35:01;101590.41;;;8.58;97.47
74594;BME280;63097;51.872;4.460;2023-03-21T06:37:26;101588.97;;;8.49;98.43
74594;BME280;63097;51.872;4.460;2023-03-21T06:39:52;101588.44;;;8.65;98.04
74594;BME280;63097;51.872;4.460;2023-03-21T06:42:17;101570.94;;;8.65;97.95
74594;BME280;63097;51.872;4.460;2023-03-21T06:44:43;101572.03;;;8.64;98.09
74594;BME280;63097;51.872;4.460;2023-03-21T06:47:08;101579.50;;;8.63;97.84
74594;BME280;63097;51.872;4.460;2023-03-21T06:49:33;101575.53;;;8.84;97.32
74594;BME280;63097;51.872;4.460;2023-03-21T06:51:59;101576.31;;;8.60;98.15
74594;BME280;63097;51.872;4.460;2023-03-21T06:54:24;101569.91;;;8.59;98.76
74594;BME280;63097;51.872;4.460;2023-03-21T06:56:49;101561.19;;;8.56;98.57
74594;BME280;63097;51.872;4.460;2023-03-21T06:59:15;101561.38;;;8.61;98.39
74594;BME280;63097;51.872;4.460;2023-03-21T07:01:40;101556.50;;;8.56;98.13
74594;BME280;63097;51.872;4.460;2023-03-21T07:04:06;101548.81;;;8.58;98.41
74594;BME280;63097;51.872;4.460;2023-03-21T07:06:31;101548.38;;;8.61;98.47
74594;BME280;63097;51.872;4.460;2023-03-21T07:08:57;101545.06;;;8.77;97.56
74594;BME280;63097;51.872;4.460;2023-03-21T07:11:22;101552.16;;;8.67;97.77
74594;BME280;63097;51.872;4.460;2023-03-21T07:13:48;101544.41;;;8.75;97.09
74594;BME280;63097;51.872;4.460;2023-03-21T07:16:15;101546.38;;;8.75;97.37
74594;BME280;63097;51.872;4.460;2023-03-21T07:18:42;101547.03;;;8.70;97.82
74594;BME280;63097;51.872;4.460;2023-03-21T07:21:07;101550.44;;;8.72;97.71
74594;BME280;63097;51.872;4.460;2023-03-21T07:23:33;101544.25;;;8.70;98.27
74594;BME280;63097;51.872;4.460;2023-03-21T07:25:58;101542.00;;;8.85;98.01
74594;BME280;63097;51.872;4.460;2023-03-21T07:28:24;101545.69;;;8.79;97.96
74594;BME280;63097;51.872;4.460;2023-03-21T07:30:54;101544.63;;;8.80;98.40
74594;BME280;63097;51.872;4.460;2023-03-21T07:33:21;101541.91;;;8.98;97.44
74594;BME280;63097;51.872;4.460;2023-03-21T07:35:46;101541.28;;;8.96;96.82
74594;BME280;63097;51.872;4.460;2023-03-21T07:38:11;101540.81;;;8.99;97.17
74594;BME280;63097;51.872;4.460;2023-03-21T07:40:37;101545.59;;;8.92;96.78
74594;BME280;63097;51.872;4.460;2023-03-21T07:43:02;101539.78;;;9.00;96.78
74594;BME280;63097;51.872;4.460;2023-03-21T07:45:27;101540.50;;;8.89;96.43
74594;BME280;63097;51.872;4.460;2023-03-21T07:47:53;101543.91;;;8.91;96.70
74594;BME280;63097;51.872;4.460;2023-03-21T07:50:18;101529.63;;;9.12;95.56
74594;BME280;63097;51.872;4.460;2023-03-21T07:52:44;101527.53;;;9.08;95.53
74594;BME280;63097;51.872;4.460;2023-03-21T07:55:10;101524.84;;;9.20;94.86
74594;BME280;63097;51.872;4.460;2023-03-21T07:57:35;101529.50;;;9.26;94.70
74594;BME280;63097;51.872;4.460;2023-03-21T08:00:03;101527.47;;;9.14;95.47
74594;BME280;63097;51.872;4.460;2023-03-21T08:02:28;101533.16;;;9.26;94.69
74594;BME280;63097;51.872;4.460;2023-03-21T08:04:54;101525.38;;;9.35;94.61
74594;BME280;63097;51.872;4.460;2023-03-21T08:07:19;101516.88;;;9.30;94.12
74594;BME280;63097;51.872;4.460;2023-03-21T08:09:45;101518.28;;;9.39;93.77
74594;BME280;63097;51.872;4.460;2023-03-21T08:12:10;101508.22;;;9.38;94.37
74594;BME280;63097;51.872;4.460;2023-03-21T08:14:36;101514.91;;;9.55;93.32
74594;BME280;63097;51.872;4.460;2023-03-21T08:17:03;101519.84;;;9.53;93.02
74594;BME280;63097;51.872;4.460;2023-03-21T08:19:29;101518.16;;;9.52;92.77
74594;BME280;63097;51.872;4.460;2023-03-21T08:21:54;101516.53;;;9.62;92.95
74594;BME280;63097;51.872;4.460;2023-03-21T08:24:19;101505.13;;;9.70;91.63
74594;BME280;63097;51.872;4.460;2023-03-21T08:26:45;101509.81;;;9.88;91.03
74594;BME280;63097;51.872;4.460;2023-03-21T08:29:11;101488.75;;;9.80;91.23
74594;BME280;63097;51.872;4.460;2023-03-21T08:31:38;101494.63;;;9.90;90.84
74594;BME280;63097;51.872;4.460;2023-03-21T08:34:04;101493.84;;;10.01;90.56
74594;BME280;63097;51.872;4.460;2023-03-21T08:36:29;101494.22;;;10.05;90.38
74594;BME280;63097;51.872;4.460;2023-03-21T08:38:55;101487.06;;;10.16;89.69
74594;BME280;63097;51.872;4.460;2023-03-21T08:41:20;101483.25;;;10.28;90.87
74594;BME280;63097;51.872;4.460;2023-03-21T08:43:45;101483.19;;;10.46;89.83
74594;BME280;63097;51.872;4.460;2023-03-21T08:46:11;101489.00;;;10.45;90.33
74594;BME280;63097;51.872;4.460;2023-03-21T08:48:36;101493.50;;;10.28;90.25
74594;BME280;63097;51.872;4.460;2023-03-21T08:51:01;101482.44;;;10.39;88.29
74594;BME280;63097;51.872;4.460;2023-03-21T08:53:27;101484.78;;;10.54;88.06
74594;BME280;63097;51.872;4.460;2023-03-21T08:55:52;101492.69;;;10.68;88.60
74594;BME280;63097;51.872;4.460;2023-03-21T08:58:17;101476.41;;;10.83;86.95
74594;BME280;63097;51.872;4.460;2023-03-21T09:00:43;101464.78;;;10.86;87.21
74594;BME280;63097;51.872;4.460;2023-03-21T09:03:08;101461.22;;;10.68;88.34
74594;BME280;63097;51.872;4.460;2023-03-21T09:05:33;101467.34;;;10.99;87.55
74594;BME280;63097;51.872;4.460;2023-03-21T09:07:59;101470.38;;;11.21;86.24
74594;BME280;63097;51.872;4.460;2023-03-21T09:10:24;101472.28;;;10.97;87.14
74594;BME280;63097;51.872;4.460;2023-03-21T09:12:52;101460.78;;;11.17;87.30
74594;BME280;63097;51.872;4.460;2023-03-21T09:15:18;101457.78;;;11.42;87.02
74594;BME280;63097;51.872;4.460;2023-03-21T09:17:43;101462.13;;;11.49;85.56
74594;BME280;63097;51.872;4.460;2023-03-21T09:20:10;101459.72;;;11.41;85.58
74594;BME280;63097;51.872;4.460;2023-03-21T09:22:38;101468.78;;;11.48;85.96
74594;BME280;63097;51.872;4.460;2023-03-21T09:25:04;101460.06;;;11.45;86.24
74594;BME280;63097;51.872;4.460;2023-03-21T09:27:29;101468.16;;;11.58;85.64
74594;BME280;63097;51.872;4.460;2023-03-21T09:29:55;101454.59;;;11.84;83.95
74594;BME280;63097;51.872;4.460;2023-03-21T09:32:20;101446.72;;;11.81;84.95
74594;BME280;63097;51.872;4.460;2023-03-21T09:34:52;101460.56;;;11.53;85.91
74594;BME280;63097;51.872;4.460;2023-03-21T09:37:17;101451.44;;;11.58;84.33
74594;BME280;63097;51.872;4.460;2023-03-21T09:39:42;101461.88;;;11.51;86.05
74594;BME280;63097;51.872;4.460;2023-03-21T09:42:15;101462.09;;;11.84;84.75
74594;BME280;63097;51.872;4.460;2023-03-21T09:45:23;101454.53;;;11.96;83.57
74594;BME280;63097;51.872;4.460;2023-03-21T09:47:51;101461.66;;;11.75;83.54
74594;BME280;63097;51.872;4.460;2023-03-21T09:50:25;101444.56;;;11.72;84.21
74594;BME280;63097;51.872;4.460;2023-03-21T09:52:56;101459.09;;;11.74;84.55
74594;BME280;63097;51.872;4.460;2023-03-21T09:55:27;101448.41;;;11.82;84.85
74594;BME280;63097;51.872;4.460;2023-03-21T10:00:50;101437.72;;;11.91;81.70
74594;BME280;63097;51.872;4.460;2023-03-21T10:03:23;101451.16;;;11.94;81.45
74594;BME280;63097;51.872;4.460;2023-03-21T10:05:52;101452.41;;;11.86;81.79
74594;BME280;63097;51.872;4.460;2023-03-21T10:08:35;101442.25;;;11.80;81.58
74594;BME280;63097;51.872;4.460;2023-03-21T10:11:23;101449.50;;;11.81;81.72
74594;BME280;63097;51.872;4.460;2023-03-21T10:13:55;101454.00;;;11.82;81.09
74594;BME280;63097;51.872;4.460;2023-03-21T10:16:30;101466.09;;;11.88;82.29
74594;BME280;63097;51.872;4.460;2023-03-21T10:18:56;101475.38;;;12.05;80.84
74594;BME280;63097;51.872;4.460;2023-03-21T10:21:24;101481.97;;;11.87;82.52
74594;BME280;63097;51.872;4.460;2023-03-21T10:23:51;101486.94;;;11.97;81.48
74594;BME280;63097;51.872;4.460;2023-03-21T10:26:19;101494.69;;;11.83;81.79
74594;BME280;63097;51.872;4.460;2023-03-21T10:28:45;101489.88;;;11.79;81.51
74594;BME280;63097;51.872;4.460;2023-03-21T10:31:16;101468.28;;;11.74;81.40
74594;BME280;63097;51.872;4.460;2023-03-21T10:33:45;101484.16;;;11.85;81.49
74594;BME280;63097;51.872;4.460;2023-03-21T10:36:16;101478.72;;;11.56;83.28
74594;BME280;63097;51.872;4.460;2023-03-21T10:38:48;101480.53;;;11.62;84.48
74594;BME280;63097;51.872;4.460;2023-03-21T10:41:14;101467.44;;;11.74;83.20
74594;BME280;63097;51.872;4.460;2023-03-21T10:43:42;101451.47;;;11.69;83.52
74594;BME280;63097;51.872;4.460;2023-03-21T10:46:11;101462.47;;;11.76;81.93
74594;BME280;63097;51.872;4.460;2023-03-21T10:48:39;101452.16;;;11.88;81.25
74594;BME280;63097;51.872;4.460;2023-03-21T10:51:08;101453.50;;;11.85;82.13
74594;BME280;63097;51.872;4.460;2023-03-21T10:53:37;101437.81;;;11.96;81.42
74594;BME280;63097;51.872;4.460;2023-03-21T10:56:07;101428.56;;;12.07;79.91
74594;BME280;63097;51.872;4.460;2023-03-21T10:58:37;101421.75;;;12.14;80.34
74594;BME280;63097;51.872;4.460;2023-03-21T11:01:05;101420.91;;;12.14;79.43
74594;BME280;63097;51.872;4.460;2023-03-21T11:03:35;101430.09;;;12.14;79.89
74594;BME280;63097;51.872;4.460;2023-03-21T11:06:13;101431.81;;;12.16;80.09
74594;BME280;63097;51.872;4.460;2023-03-21T11:08:47;101440.00;;;11.94;81.15
74594;BME280;63097;51.872;4.460;2023-03-21T11:11:25;101441.28;;;11.75;82.44
74594;BME280;63097;51.872;4.460;2023-03-21T11:13:59;101439.31;;;11.87;81.91
74594;BME280;63097;51.872;4.460;2023-03-21T11:16:30;101446.09;;;11.91;82.50
74594;BME280;63097;51.872;4.460;2023-03-21T11:19:02;101442.59;;;12.40;79.97
74594;BME280;63097;51.872;4.460;2023-03-21T11:21:34;101443.16;;;12.70;78.14
74594;BME280;63097;51.872;4.460;2023-03-21T11:24:01;101447.25;;;12.79;76.38
74594;BME280;63097;51.872;4.460;2023-03-21T11:26:35;101443.91;;;12.66;77.59
74594;BME280;63097;51.872;4.460;2023-03-21T11:31:47;101442.97;;;13.05;74.05
74594;BME280;63097;51.872;4.460;2023-03-21T11:34:37;101447.69;;;13.04;72.15
74594;BME280;63097;51.872;4.460;2023-03-21T11:37:17;101449.59;;;12.87;74.15
74594;BME280;63097;51.872;4.460;2023-03-21T11:39:44;101454.50;;;12.97;72.54
74594;BME280;63097;51.872;4.460;2023-03-21T11:42:30;101449.84;;;12.86;74.82
74594;BME280;63097;51.872;4.460;2023-03-21T11:45:00;101440.81;;;12.95;75.14
74594;BME280;63097;51.872;4.460;2023-03-21T11:47:25;101444.75;;;13.11;72.57
74594;BME280;63097;51.872;4.460;2023-03-21T11:49:51;101439.16;;;13.11;72.63
74594;BME280;63097;51.872;4.460;2023-03-21T11:52:30;101439.19;;;13.71;69.25
74594;BME280;63097;51.872;4.460;2023-03-21T11:55:08;101427.16;;;13.92;68.46
74594;BME280;63097;51.872;4.460;2023-03-21T12:00:38;101420.06;;;15.23;63.82
74594;BME280;63097;51.872;4.460;2023-03-21T12:05:55;101408.16;;;13.51;69.62
74594;BME280;63097;51.872;4.460;2023-03-21T12:11:16;101411.13;;;13.06;71.24
74594;BME280;63097;51.872;4.460;2023-03-21T12:14:12;101425.38;;;12.76;72.96
74594;BME280;63097;51.872;4.460;2023-03-21T12:25:19;101408.22;;;12.84;72.95
74594;BME280;63097;51.872;4.460;2023-03-21T12:28:06;101394.53;;;12.99;73.32
74594;BME280;63097;51.872;4.460;2023-03-21T12:36:13;101399.19;;;12.77;72.50
74594;BME280;63097;51.872;4.460;2023-03-21T12:41:32;101380.13;;;13.07;71.87
74594;BME280;63097;51.872;4.460;2023-03-21T12:44:12;101380.91;;;13.41;71.62
74594;BME280;63097;51.872;4.460;2023-03-21T12:46:49;101388.72;;;13.61;71.16
74594;BME280;63097;51.872;4.460;2023-03-21T12:49:34;101374.09;;;13.32;70.63
74594;BME280;63097;51.872;4.460;2023-03-21T12:52:06;101383.09;;;13.18;70.85
74594;BME280;63097;51.872;4.460;2023-03-21T12:57:14;101362.53;;;13.24;71.73
74594;BME280;63097;51.872;4.460;2023-03-21T13:02:27;101365.38;;;13.72;71.47
74594;BME280;63097;51.872;4.460;2023-03-21T13:07:36;101353.50;;;13.38;70.69
74594;BME280;63097;51.872;4.460;2023-03-21T13:10:12;101352.03;;;13.14;69.71
74594;BME280;63097;51.872;4.460;2023-03-21T13:12:44;101360.59;;;13.07;71.37
74594;BME280;63097;51.872;4.460;2023-03-21T13:20:43;101342.66;;;12.87;73.14
74594;BME280;63097;51.872;4.460;2023-03-21T13:23:10;101343.00;;;12.74;74.28
74594;BME280;63097;51.872;4.460;2023-03-21T13:25:45;101341.69;;;12.60;74.38
74594;BME280;63097;51.872;4.460;2023-03-21T13:28:20;101345.63;;;12.64;74.20
74594;BME280;63097;51.872;4.460;2023-03-21T13:30:46;101344.03;;;12.68;74.79
74594;BME280;63097;51.872;4.460;2023-03-21T13:33:14;101350.63;;;12.62;74.42
74594;BME280;63097;51.872;4.460;2023-03-21T13:35:42;101343.94;;;12.63;75.08
74594;BME280;63097;51.872;4.460;2023-03-21T13:38:20;101336.16;;;12.65;76.13
74594;BME280;63097;51.872;4.460;2023-03-21T13:51:54;101336.84;;;12.55;75.73
74594;BME280;63097;51.872;4.460;2023-03-21T13:54:44;101330.06;;;12.51;76.53
74594;BME280;63097;51.872;4.460;2023-03-21T13:57:41;101326.28;;;12.57;76.33
74594;BME280;63097;51.872;4.460;2023-03-21T14:00:16;101327.13;;;12.58;76.67
74594;BME280;63097;51.872;4.460;2023-03-21T14:05:21;101313.66;;;12.55;76.72
74594;BME280;63097;51.872;4.460;2023-03-21T14:07:52;101318.56;;;12.64;76.27
74594;BME280;63097;51.872;4.460;2023-03-21T14:10:24;101323.56;;;12.62;76.93
74594;BME280;63097;51.872;4.460;2023-03-21T14:12:52;101307.41;;;12.48;78.42
74594;BME280;63097;51.872;4.460;2023-03-21T14:15:20;101309.06;;;12.82;77.27
74594;BME280;63097;51.872;4.460;2023-03-21T14:17:59;101316.16;;;12.89;76.67
74594;BME280;63097;51.872;4.460;2023-03-21T14:20:30;101317.22;;;12.67;77.93
74594;BME280;63097;51.872;4.460;2023-03-21T14:22:56;101315.84;;;12.53;78.36
74594;BME280;63097;51.872;4.460;2023-03-21T14:25:23;101317.03;;;12.73;77.10
74594;BME280;63097;51.872;4.460;2023-03-21T14:27:54;101317.72;;;12.64;78.36
74594;BME280;63097;51.872;4.460;2023-03-21T14:30:29;101307.16;;;12.66;78.28
74594;BME280;63097;51.872;4.460;2023-03-21T14:32:57;101315.09;;;12.74;78.12
74594;BME280;63097;51.872;4.460;2023-03-21T14:35:25;101313.66;;;12.71;78.55